KFUL/FUL METAR and TAF weather

Enter ICAO airport designator
Station Type Date Time Source
KFUL METAR 2019/10/23 11:53 UTC NOAA

KFUL 231153Z AUTO 09003KT 10SM CLR 17/03 A2989 RMK AO2 SLP120 T01720028 10206 20161 56010


Station Type Date Time Source
KFUL Decoded METAR 2019/10/23 11:53 UTC NOAA

FULLERTON MUNICIPAL AIRPORT , CA, United States (KFUL) 33-52N 117-59W 35M
Oct 23, 2019 - 07:53 AM EDT / 2019.10.23 1153 UTC
Wind: from the E (090 degrees) at 3 MPH (3 KT):0
Visibility: 10 mile(s):0
Sky conditions: clear
Temperature: 63.0 F (17.2 C)
Dew Point: 37.0 F (2.8 C)
Relative Humidity: 38%
Pressure (altimeter): 29.89 in. Hg (1012 hPa)
Pressure tendency: 0.03 inches (1.0 hPa) lower than three hours ago
ob: KFUL 231153Z AUTO 09003KT 10SM CLR 17/03 A2989 RMK AO2 SLP120 T01720028 10206 20161 56010
cycle: 12

Station Type Date Time Source
KFUL TAF UTC NOAA

Error!

Example: see airport list